createdAt,value
2023-04-17T00:04:52.900Z,15.90
2023-04-17T00:09:55.153Z,15.60
2023-04-17T00:14:57.328Z,15.84
2023-04-17T00:19:59.639Z,16.29
2023-04-17T00:25:02.096Z,15.47
2023-04-17T00:30:04.777Z,15.59
2023-04-17T00:35:07.617Z,15.25
2023-04-17T00:40:10.354Z,16.27
2023-04-17T00:45:12.660Z,15.51
2023-04-17T00:50:15.342Z,15.85
2023-04-17T00:55:18.384Z,16.14
2023-04-17T01:00:20.694Z,15.28
2023-04-17T01:05:23.126Z,15.88
2023-04-17T01:10:25.307Z,15.53
2023-04-17T01:15:27.534Z,15.52
2023-04-17T01:20:32.659Z,16.23
2023-04-17T01:25:34.940Z,16.17
2023-04-17T01:30:37.031Z,16.15
2023-04-17T01:35:39.157Z,16.16
2023-04-17T01:40:41.303Z,16.36
2023-04-17T01:45:43.460Z,16.51
2023-04-17T01:50:45.830Z,16.18
2023-04-17T01:55:47.942Z,15.99
2023-04-17T02:00:50.399Z,16.20
2023-04-17T02:05:55.942Z,15.80
2023-04-17T02:10:58.082Z,15.94
2023-04-17T02:16:00.316Z,15.70
2023-04-17T02:21:02.520Z,15.64
2023-04-17T02:26:04.950Z,15.57
2023-04-17T02:31:08.941Z,15.43
2023-04-17T02:36:11.389Z,15.85
2023-04-17T02:41:13.559Z,15.56
2023-04-17T02:46:16.242Z,15.69
2023-04-17T02:51:21.223Z,15.67
2023-04-17T02:56:23.420Z,15.66
2023-04-17T03:01:26.656Z,15.71
2023-04-17T03:06:28.938Z,15.22
2023-04-17T03:11:31.287Z,14.83
2023-04-17T03:16:33.436Z,14.95
2023-04-17T03:21:35.807Z,15.15
2023-04-17T03:26:37.985Z,15.20
2023-04-17T03:31:40.946Z,15.44
2023-04-17T03:36:43.094Z,14.86
2023-04-17T03:41:45.960Z,14.90
2023-04-17T03:46:48.151Z,14.99
2023-04-17T03:51:50.319Z,14.89
2023-04-17T03:56:52.589Z,14.79
2023-04-17T04:01:54.685Z,14.93
2023-04-17T04:06:58.273Z,15.02
2023-04-17T04:12:00.445Z,14.80
2023-04-17T04:17:02.924Z,15.10
2023-04-17T04:22:06.717Z,15.13
2023-04-17T04:27:09.698Z,15.50
2023-04-17T04:32:13.918Z,15.35
2023-04-17T04:37:16.882Z,15.49
2023-04-17T04:42:22.381Z,15.35
2023-04-17T04:47:24.936Z,15.43
2023-04-17T04:52:28.812Z,15.49
2023-04-17T04:57:30.967Z,15.52
2023-04-17T05:02:33.250Z,15.57
2023-04-17T05:07:35.544Z,15.70
2023-04-17T05:12:37.903Z,15.80
2023-04-17T05:17:40.201Z,15.88
2023-04-17T05:22:42.422Z,16.20
2023-04-17T05:27:44.665Z,16.24
2023-04-17T05:32:46.980Z,16.61
2023-04-17T05:37:49.240Z,16.89
2023-04-17T05:42:51.529Z,16.43
2023-04-17T05:47:53.922Z,16.84
2023-04-17T05:53:00.588Z,15.98
2023-04-17T05:58:10.550Z,16.43
2023-04-17T06:03:19.849Z,16.60
2023-04-17T06:08:22.321Z,17.09
2023-04-17T06:13:24.978Z,16.96
2023-04-17T06:18:27.217Z,16.88
2023-04-17T06:23:29.378Z,16.98
2023-04-17T06:28:32.598Z,16.76
2023-04-17T06:33:34.745Z,16.84
2023-04-17T06:38:36.871Z,16.50
2023-04-17T06:43:39.039Z,16.57
2023-04-17T06:48:41.147Z,16.58
2023-04-17T06:53:43.728Z,16.35
2023-04-17T06:58:46.091Z,16.45
2023-04-17T07:03:48.481Z,16.18
2023-04-17T07:08:52.120Z,15.98
2023-04-17T07:13:55.352Z,15.18
2023-04-17T07:18:57.569Z,15.64
2023-04-17T07:23:59.775Z,15.42
2023-04-17T07:29:02.194Z,14.98
2023-04-17T07:34:05.582Z,14.90
2023-04-17T07:39:08.446Z,14.70
2023-04-17T07:44:10.590Z,14.85
2023-04-17T07:49:13.856Z,15.02
2023-04-17T07:54:16.436Z,14.89
2023-04-17T07:59:18.574Z,15.05
2023-04-17T08:04:21.693Z,15.32
2023-04-17T08:09:24.003Z,15.64
2023-04-17T08:14:26.187Z,15.69
2023-04-17T08:19:28.902Z,16.08
2023-04-17T08:24:32.188Z,15.96
2023-04-17T08:29:34.604Z,16.33
2023-04-17T08:34:38.238Z,16.25
2023-04-17T08:39:40.823Z,15.61
2023-04-17T08:44:43.601Z,14.26
2023-04-17T08:49:46.458Z,13.37
2023-04-17T08:54:51.136Z,13.08
2023-04-17T08:59:53.728Z,13.20
2023-04-17T09:04:56.461Z,12.52
2023-04-17T09:09:58.977Z,13.70
2023-04-17T09:15:16.953Z,14.42
2023-04-17T09:20:19.203Z,15.18
2023-04-17T09:25:23.543Z,15.69
2023-04-17T09:30:27.341Z,14.58
2023-04-17T09:35:29.579Z,14.14
2023-04-17T09:40:42.542Z,14.55
2023-04-17T09:45:45.587Z,15.05
2023-04-17T09:50:49.249Z,15.88
2023-04-17T09:55:53.638Z,16.10
2023-04-17T10:00:56.119Z,16.44
2023-04-17T10:05:58.415Z,16.75
2023-04-17T10:11:08.510Z,17.44
2023-04-17T10:16:11.229Z,17.77
2023-04-17T10:21:24.632Z,18.20
2023-04-17T10:26:27.514Z,18.61
2023-04-17T10:32:07.573Z,19.02
2023-04-17T10:37:15.637Z,19.05
2023-04-17T10:42:22.261Z,19.53
2023-04-17T10:47:32.348Z,19.86
2023-04-17T10:52:40.842Z,20.11
2023-04-17T10:58:03.852Z,20.47
2023-04-17T11:03:07.509Z,20.61
2023-04-17T11:08:11.501Z,20.51
2023-04-17T11:13:15.255Z,20.57
2023-04-17T11:18:17.495Z,20.69
2023-04-17T11:23:20.305Z,21.12
2023-04-17T11:28:22.457Z,21.18
2023-04-17T11:33:24.788Z,21.48
2023-04-17T11:38:27.744Z,21.62
2023-04-17T11:43:31.222Z,21.90
2023-04-17T11:48:33.396Z,22.11
2023-04-17T11:53:36.586Z,21.92
2023-04-17T11:58:48.236Z,22.24
2023-04-17T12:03:50.911Z,22.38
2023-04-17T12:08:55.311Z,22.50
2023-04-17T12:13:58.203Z,22.49
2023-04-17T12:19:00.440Z,22.60
2023-04-17T12:24:03.200Z,22.42
2023-04-17T12:29:05.357Z,22.41
2023-04-17T12:34:07.594Z,22.42
2023-04-17T12:39:09.804Z,22.16
2023-04-17T12:44:12.237Z,22.01
2023-04-17T12:49:14.873Z,21.91
2023-04-17T12:54:17.134Z,21.57
2023-04-17T12:59:19.251Z,21.16
2023-04-17T13:04:21.640Z,21.21
2023-04-17T13:09:23.889Z,20.94
2023-04-17T13:14:26.245Z,20.77
2023-04-17T13:19:29.193Z,20.79
2023-04-17T13:24:31.853Z,20.84
2023-04-17T13:29:33.987Z,20.80
2023-04-17T13:40:05.529Z,20.83
2023-04-17T13:45:08.390Z,20.98
2023-04-17T13:50:11.115Z,20.79
2023-04-17T13:55:15.025Z,20.80
2023-04-17T14:00:19.127Z,20.93
2023-04-17T14:05:21.433Z,20.94
2023-04-17T14:10:24.169Z,20.73
2023-04-17T14:15:26.493Z,19.96
2023-04-17T14:20:29.192Z,19.47
2023-04-17T14:25:31.342Z,19.83
2023-04-17T14:30:33.799Z,19.98
2023-04-17T14:35:36.057Z,20.03
2023-04-17T14:40:39.060Z,20.01
2023-04-17T14:45:41.652Z,20.07
2023-04-17T14:50:43.833Z,19.86
2023-04-17T14:55:46.151Z,19.99
2023-04-17T15:00:48.545Z,19.51
2023-04-17T15:05:52.641Z,19.51
2023-04-17T15:10:54.843Z,19.54
2023-04-17T15:15:56.957Z,19.25
2023-04-17T15:20:59.179Z,19.38
2023-04-17T15:26:01.896Z,19.42
2023-04-17T15:31:04.198Z,19.92
2023-04-17T15:36:07.025Z,20.29
2023-04-17T15:41:10.600Z,19.92
2023-04-17T15:46:13.362Z,19.57
2023-04-17T15:51:15.599Z,19.57
2023-04-17T15:56:17.825Z,19.45
2023-04-17T16:01:20.103Z,19.28
2023-04-17T16:06:22.368Z,19.16
2023-04-17T16:11:24.649Z,18.96
2023-04-17T16:16:29.596Z,18.87
2023-04-17T16:21:32.301Z,18.74
2023-04-17T16:26:34.947Z,18.42
2023-04-17T16:31:37.130Z,18.57
2023-04-17T16:36:39.238Z,18.32
2023-04-17T16:41:41.486Z,18.63
2023-04-17T16:47:02.871Z,18.84
2023-04-17T16:52:06.164Z,18.51
2023-04-17T16:57:09.392Z,18.21
2023-04-17T17:02:11.771Z,17.89
2023-04-17T17:07:14.050Z,17.81
2023-04-17T17:12:16.275Z,17.60
2023-04-17T17:17:18.422Z,17.69
2023-04-17T17:22:20.593Z,17.17
2023-04-17T17:27:22.792Z,17.45
2023-04-17T17:32:24.942Z,17.40
2023-04-17T17:37:27.893Z,17.25
2023-04-17T17:42:30.353Z,17.30
2023-04-17T17:47:32.771Z,17.18
2023-04-17T17:52:34.928Z,16.98
2023-04-17T18:03:03.172Z,17.02
2023-04-17T18:08:05.474Z,16.85
2023-04-17T18:13:07.755Z,16.72
2023-04-17T18:18:10.765Z,16.81
2023-04-17T18:23:12.947Z,16.82
2023-04-17T18:28:15.052Z,16.76
2023-04-17T18:33:17.136Z,16.47
2023-04-17T18:38:19.392Z,16.44
2023-04-17T18:43:21.538Z,16.71
2023-04-17T18:48:24.742Z,16.73
2023-04-17T18:53:27.011Z,16.60
2023-04-17T18:58:29.135Z,16.61
2023-04-17T19:03:31.525Z,16.48
2023-04-17T19:08:33.973Z,16.57
2023-04-17T19:13:36.253Z,16.39
2023-04-17T19:18:38.691Z,16.57
2023-04-17T19:23:41.749Z,16.48
2023-04-17T19:28:43.992Z,16.52
2023-04-17T19:33:46.168Z,16.50
2023-04-17T19:38:48.407Z,16.50
2023-04-17T19:43:52.028Z,16.66
2023-04-17T19:48:54.294Z,16.40
2023-04-17T19:53:56.630Z,16.68
2023-04-17T19:59:02.406Z,16.69
2023-04-17T20:04:04.707Z,16.58
2023-04-17T20:09:07.098Z,16.47
2023-04-17T20:14:09.326Z,16.52
2023-04-17T20:19:11.653Z,16.48
2023-04-17T20:24:16.045Z,16.61
2023-04-17T20:29:18.243Z,16.65
2023-04-17T20:34:21.587Z,16.69
2023-04-17T20:39:23.812Z,16.57
2023-04-17T20:44:26.140Z,16.50
2023-04-17T20:49:28.215Z,16.40
2023-04-17T20:54:30.489Z,16.25
2023-04-17T20:59:33.724Z,16.37
2023-04-17T21:04:35.947Z,16.23
2023-04-17T21:09:38.344Z,15.87
2023-04-17T21:14:41.986Z,15.80
2023-04-17T21:19:46.360Z,16.01
2023-04-17T21:24:49.736Z,16.10
2023-04-17T21:29:52.573Z,15.79
2023-04-17T21:34:54.708Z,15.91
2023-04-17T21:39:56.906Z,16.05
2023-04-17T21:44:59.093Z,16.01
2023-04-17T21:50:01.231Z,15.93
2023-04-17T21:55:05.629Z,16.09
2023-04-17T22:00:11.942Z,16.08
2023-04-17T22:05:15.604Z,16.16
2023-04-17T22:10:17.787Z,16.07
2023-04-17T22:15:19.987Z,16.22
2023-04-17T22:20:22.282Z,16.12
2023-04-17T22:25:24.498Z,16.20
2023-04-17T22:30:26.620Z,15.77
2023-04-17T22:35:29.030Z,15.94
2023-04-17T22:40:31.269Z,16.08
2023-04-17T22:45:33.423Z,16.19
2023-04-17T22:50:35.552Z,16.01
2023-04-17T22:55:39.478Z,15.94
2023-04-17T23:00:41.570Z,16.02
2023-04-17T23:05:43.731Z,16.24
2023-04-17T23:10:45.995Z,16.30
2023-04-17T23:15:48.360Z,16.05
2023-04-17T23:20:50.679Z,15.99
2023-04-17T23:25:52.769Z,16.13
2023-04-17T23:30:55.066Z,15.97
2023-04-17T23:35:57.176Z,16.07
2023-04-17T23:40:59.412Z,16.18
2023-04-17T23:46:01.835Z,15.92
2023-04-17T23:56:32.602Z,16.11
